Time;durP1;ratioP1;P1;durP2;ratioP2;P2;SDS_P1;SDS_P2;PMS_P1;PMS_P2;Temp;Humidity;BMP_temperature;BMP_pressure;BME280_temperature;BME280_humidity;BME280_pressure;Samples;Min_cycle;Max_cycle;Signal;HPM_P1;HPM_P2
2022/05/28 00:01:16;;;;;;;9.05;2.28;;;;;;;16.06;44.91;102150.53;5004453;28;20046;-65
2022/05/28 00:03:45;;;;;;;8.30;2.10;;;;;;;16.05;44.99;102144.28;5004976;28;20050;-65
2022/05/28 00:06:17;;;;;;;5.97;2.05;;;;;;;16.03;45.02;102151.81;5002788;28;20074;-65
2022/05/28 00:08:45;;;;;;;7.45;2.40;;;;;;;15.94;45.12;102132.31;5006917;28;20068;-65
2022/05/28 00:11:17;;;;;;;10.27;2.75;;;;;;;16.01;45.18;102144.97;5005703;28;20057;-65
2022/05/28 00:13:46;;;;;;;9.85;2.67;;;;;;;15.98;44.98;102143.53;5004126;28;20053;-65
2022/05/28 00:16:15;;;;;;;11.52;2.90;;;;;;;16.00;45.08;102143.31;5003810;28;20042;-65
2022/05/28 00:18:44;;;;;;;7.82;3.15;;;;;;;15.99;45.17;102142.47;5004489;28;20084;-66
2022/05/28 00:21:14;;;;;;;6.25;2.53;;;;;;;15.97;45.18;102135.63;5004343;28;20070;-65
2022/05/28 00:23:44;;;;;;;11.27;3.08;;;;;;;15.95;45.33;102128.56;5003945;28;20069;-65
2022/05/28 00:26:13;;;;;;;10.18;2.25;;;;;;;15.94;45.21;102129.59;5008228;28;20078;-65
2022/05/28 00:28:42;;;;;;;8.00;2.47;;;;;;;15.92;45.41;102125.47;5002702;28;20046;-67
2022/05/28 00:31:11;;;;;;;8.65;2.30;;;;;;;15.90;45.24;102122.97;5004557;28;20410;-66
2022/05/28 00:33:39;;;;;;;8.75;2.80;;;;;;;15.88;45.31;102121.56;5004042;28;20050;-66
2022/05/28 00:36:09;;;;;;;7.75;2.67;;;;;;;15.88;45.41;102129.69;5002923;28;20046;-66
2022/05/28 00:38:39;;;;;;;5.70;2.40;;;;;;;15.86;45.69;102121.78;5004635;28;20045;-66
2022/05/28 00:41:09;;;;;;;6.68;2.33;;;;;;;15.84;45.63;102123.06;5004201;28;20062;-66
2022/05/28 00:43:40;;;;;;;9.82;2.55;;;;;;;15.75;45.62;102110.84;5002253;28;20042;-66
2022/05/28 00:46:11;;;;;;;10.93;2.60;;;;;;;15.80;45.68;102119.97;5004249;28;20049;-65
2022/05/28 00:48:44;;;;;;;6.47;1.98;;;;;;;15.79;45.71;102112.06;5001450;28;20048;-66
2022/05/28 00:51:16;;;;;;;7.25;2.30;;;;;;;15.79;45.64;102114.78;5003948;28;20451;-65
2022/05/28 00:53:44;;;;;;;5.40;2.03;;;;;;;15.78;45.71;102113.94;5002401;28;20073;-65
2022/05/28 00:56:13;;;;;;;7.60;2.33;;;;;;;15.78;45.99;102113.13;5004282;28;20057;-65
2022/05/28 00:58:41;;;;;;;8.75;3.17;;;;;;;15.78;45.92;102126.66;5003323;28;20054;-65
2022/05/28 01:01:10;;;;;;;8.10;2.50;;;;;;;15.77;45.86;102119.59;5002732;28;20118;-65
2022/05/28 01:03:54;;;;;;;13.48;3.00;;;;;;;15.77;45.93;102116.88;5002222;28;20108;-65
2022/05/28 01:06:35;;;;;;;11.50;2.58;;;;;;;15.75;45.83;102110.84;5002499;28;20522;-65
2022/05/28 01:09:09;;;;;;;8.15;2.85;;;;;;;15.74;45.95;102112.72;5003365;28;20062;-65
2022/05/28 01:11:44;;;;;;;9.75;2.60;;;;;;;15.73;45.84;102110.25;5004096;28;20065;-65
2022/05/28 01:14:22;;;;;;;9.30;3.45;;;;;;;15.70;46.25;102108.00;5002717;28;20078;-65
2022/05/28 01:16:53;;;;;;;7.97;2.53;;;;;;;15.70;46.27;102100.69;4997903;28;20479;-66
2022/05/28 01:19:33;;;;;;;9.55;3.22;;;;;;;15.68;46.32;102094.66;5002698;28;20145;-65
2022/05/28 01:22:08;;;;;;;10.85;3.70;;;;;;;15.68;46.23;102108.22;5003801;28;20061;-65
2022/05/28 01:24:47;;;;;;;12.43;3.15;;;;;;;15.66;46.35;102109.50;5003811;28;20388;-65
2022/05/28 01:27:19;;;;;;;9.82;2.70;;;;;;;15.66;46.18;102104.91;5002651;28;20085;-65
2022/05/28 01:29:49;;;;;;;10.77;2.92;;;;;;;15.65;46.12;102094.28;5003938;28;20054;-65
2022/05/28 01:32:19;;;;;;;8.82;3.25;;;;;;;15.62;46.43;102096.38;5001234;28;20088;-65
2022/05/28 01:34:48;;;;;;;7.20;2.28;;;;;;;15.61;46.15;102100.16;5000122;28;20487;-66
2022/05/28 01:37:17;;;;;;;11.10;3.08;;;;;;;15.61;46.46;102096.63;5003403;28;20089;-66
2022/05/28 01:39:48;;;;;;;6.82;2.65;;;;;;;15.60;46.22;102086.84;5001852;28;20118;-66
2022/05/28 01:42:19;;;;;;;11.13;2.92;;;;;;;15.60;46.29;102092.28;5003402;28;20054;-65
2022/05/28 01:44:50;;;;;;;8.43;2.70;;;;;;;15.59;46.21;102094.16;5002230;28;20096;-66
2022/05/28 01:47:19;;;;;;;26.25;4.03;;;;;;;15.57;46.30;102080.00;5001542;28;20110;-66
2022/05/28 01:49:48;;;;;;;7.97;3.15;;;;;;;15.57;46.67;102090.00;5002525;28;20050;-66
2022/05/28 01:52:19;;;;;;;11.27;2.40;;;;;;;15.55;46.56;102092.91;5001744;28;20139;-66
2022/05/28 01:54:49;;;;;;;11.02;3.00;;;;;;;15.53;46.54;102084.19;5003082;28;20519;-66
2022/05/28 01:57:18;;;;;;;11.93;2.80;;;;;;;15.51;46.76;102089.00;5002859;28;20055;-66
2022/05/28 01:59:46;;;;;;;12.75;2.67;;;;;;;15.50;46.63;102086.50;5003846;28;20150;-65
2022/05/28 02:02:16;;;;;;;9.13;3.55;;;;;;;15.49;46.49;102085.69;5001478;28;20081;-65
2022/05/28 02:04:47;;;;;;;9.95;3.40;;;;;;;15.48;46.84;102097.56;5003046;28;20080;-65
2022/05/28 02:07:17;;;;;;;12.07;3.22;;;;;;;15.48;46.76;102088.63;5003824;28;20046;-66
2022/05/28 02:09:48;;;;;;;8.95;2.78;;;;;;;15.47;46.83;102098.63;5005348;28;20407;-66
2022/05/28 02:12:26;;;;;;;10.73;2.28;;;;;;;15.46;46.86;102082.59;5002292;28;20062;-66
2022/05/28 02:15:10;;;;;;;12.20;3.47;;;;;;;15.44;46.91;102088.25;5002898;28;20046;-66
2022/05/28 02:17:47;;;;;;;4.20;2.08;;;;;;;15.43;46.67;102089.28;4987608;28;20047;-66
2022/05/28 02:20:21;;;;;;;13.23;3.25;;;;;;;15.42;47.05;102084.09;5003665;28;20146;-65
2022/05/28 02:23:15;;;;;;;9.38;2.53;;;;;;;15.42;46.91;102092.22;5003209;28;20046;-66
2022/05/28 02:25:46;;;;;;;7.68;2.67;;;;;;;15.41;46.93;102091.41;5007061;28;20074;-65
2022/05/28 02:28:16;;;;;;;8.98;2.97;;;;;;;15.37;47.10;102086.66;5006066;28;20459;-66
2022/05/28 02:30:48;;;;;;;8.00;2.70;;;;;;;15.39;47.19;102084.53;5007654;28;20053;-65
2022/05/28 02:33:16;;;;;;;10.27;2.25;;;;;;;15.38;47.05;102089.13;5004001;28;20097;-65
2022/05/28 02:35:44;;;;;;;8.85;2.58;;;;;;;15.37;46.78;102083.94;5006299;28;20058;-65
2022/05/28 02:38:13;;;;;;;11.15;2.88;;;;;;;15.36;46.97;102088.53;5006448;28;20081;-65
2022/05/28 02:40:41;;;;;;;10.90;3.00;;;;;;;15.35;47.34;102086.88;5005807;28;20090;-65
2022/05/28 02:43:08;;;;;;;12.27;3.10;;;;;;;15.33;47.44;102088.16;5006206;28;20054;-65
2022/05/28 02:45:38;;;;;;;10.60;2.97;;;;;;;15.32;47.29;102086.50;5012125;28;20058;-65
2022/05/28 02:48:06;;;;;;;8.05;2.80;;;;;;;15.32;47.44;102084.59;5006016;28;20042;-66
2022/05/28 02:50:34;;;;;;;6.90;2.67;;;;;;;15.31;47.33;102080.25;5006253;28;20074;-65
2022/05/28 02:53:02;;;;;;;7.97;2.60;;;;;;;15.29;47.37;102080.47;5007084;28;20053;-65
2022/05/28 02:55:29;;;;;;;10.07;2.38;;;;;;;15.29;47.13;102083.19;5004453;28;20503;-65
2022/05/28 02:57:57;;;;;;;7.82;3.20;;;;;;;15.30;47.23;102081.28;5004574;28;20088;-65
2022/05/28 03:00:25;;;;;;;9.48;2.78;;;;;;;15.28;47.32;102078.81;5007015;28;20046;-65
2022/05/28 03:02:54;;;;;;;7.28;2.80;;;;;;;15.21;47.49;102064.50;5010069;28;20077;-65
2022/05/28 03:05:24;;;;;;;11.43;3.10;;;;;;;15.26;47.58;102082.78;5005111;28;20121;-65
2022/05/28 03:07:52;;;;;;;8.85;3.08;;;;;;;15.24;47.78;102074.06;5006257;28;20487;-65
2022/05/28 03:10:20;;;;;;;10.23;3.05;;;;;;;15.22;47.47;102071.56;5006682;28;20074;-65
2022/05/28 03:12:48;;;;;;;7.20;2.58;;;;;;;15.23;47.93;102070.53;5006994;28;20069;-65
2022/05/28 03:15:15;;;;;;;9.95;3.00;;;;;;;15.15;47.79;102059.16;5005587;28;20137;-65
2022/05/28 03:17:43;;;;;;;9.43;3.15;;;;;;;15.21;48.05;102069.91;5005544;28;20069;-65
2022/05/28 03:20:13;;;;;;;11.32;2.60;;;;;;;15.20;48.18;102064.72;5006350;28;20081;-65
2022/05/28 03:22:40;;;;;;;13.35;2.75;;;;;;;15.19;47.82;102073.91;5005833;28;20050;-65
2022/05/28 03:25:09;;;;;;;9.50;3.05;;;;;;;15.19;47.94;102071.19;5009786;28;20084;-65
2022/05/28 03:27:36;;;;;;;10.73;2.75;;;;;;;15.16;47.94;102067.03;5003948;28;20042;-65
2022/05/28 03:30:05;;;;;;;5.85;2.60;;;;;;;15.18;48.15;102072.25;5004417;28;20053;-65
2022/05/28 03:32:33;;;;;;;7.38;2.88;;;;;;;15.16;47.77;102069.75;5005489;28;20085;-65
2022/05/28 03:35:00;;;;;;;6.07;2.92;;;;;;;15.16;48.19;102071.63;5003557;28;20113;-65
2022/05/28 03:37:29;;;;;;;7.53;2.42;;;;;;;15.08;48.21;102061.91;5002499;28;20039;-65
2022/05/28 03:39:57;;;;;;;11.93;3.42;;;;;;;15.13;48.50;102072.91;5002276;28;20090;-65
2022/05/28 03:42:25;;;;;;;9.73;3.65;;;;;;;15.13;48.16;102080.19;5004989;28;20081;-65
2022/05/28 03:44:52;;;;;;;8.73;2.65;;;;;;;15.12;48.28;102082.09;5009188;28;20078;-65
2022/05/28 03:47:20;;;;;;;11.95;2.67;;;;;;;15.12;48.22;102079.38;5003652;28;20050;-66
2022/05/28 03:49:48;;;;;;;9.20;2.70;;;;;;;15.11;48.37;102080.44;5003422;28;20073;-65
2022/05/28 03:52:16;;;;;;;10.07;2.90;;;;;;;15.10;48.51;102081.47;5001475;28;20054;-65
2022/05/28 03:54:45;;;;;;;11.63;2.70;;;;;;;15.10;48.53;102077.94;5002871;28;20077;-65
2022/05/28 03:57:15;;;;;;;11.60;2.97;;;;;;;15.08;48.51;102080.88;5001179;28;20081;-65
2022/05/28 03:59:43;;;;;;;8.60;3.05;;;;;;;15.09;48.43;102084.41;5004238;28;20084;-66
2022/05/28 04:02:11;;;;;;;10.05;2.65;;;;;;;15.08;48.77;102090.88;5000499;28;20054;-65
2022/05/28 04:04:39;;;;;;;13.40;3.58;;;;;;;15.06;48.92;102082.13;5003089;28;20065;-65
2022/05/28 04:07:07;;;;;;;9.73;2.80;;;;;;;15.06;48.96;102082.13;5003256;28;20534;-65
2022/05/28 04:09:35;;;;;;;9.82;2.60;;;;;;;15.05;48.46;102089.44;5005674;28;20073;-65
2022/05/28 04:12:05;;;;;;;7.13;2.90;;;;;;;15.03;48.74;102094.25;5004474;28;20054;-65
2022/05/28 04:14:33;;;;;;;5.95;2.53;;;;;;;15.02;49.09;102091.75;5004515;28;20050;-65
2022/05/28 04:17:00;;;;;;;10.55;4.10;;;;;;;15.02;49.31;102097.16;5004122;28;20082;-65
2022/05/28 04:19:28;;;;;;;6.80;2.45;;;;;;;15.01;49.12;102098.22;5002634;28;20042;-65
2022/05/28 04:21:56;;;;;;;9.45;3.05;;;;;;;15.00;49.51;102093.84;5004106;28;20511;-65
2022/05/28 04:24:24;;;;;;;10.60;3.17;;;;;;;14.99;49.17;102093.03;5004930;28;20046;-65
2022/05/28 04:26:52;;;;;;;10.45;2.90;;;;;;;14.98;49.56;102094.91;5002860;28;20054;-65
2022/05/28 04:29:21;;;;;;;7.30;2.22;;;;;;;14.98;49.62;102097.59;5003531;28;20105;-65
2022/05/28 04:31:48;;;;;;;6.43;2.08;;;;;;;14.98;49.59;102096.78;5002573;28;20073;-65
2022/05/28 04:34:16;;;;;;;12.02;3.00;;;;;;;14.93;49.35;102083.91;5001536;28;20089;-65
2022/05/28 04:36:44;;;;;;;10.73;2.75;;;;;;;14.93;49.38;102097.44;5002164;28;20038;-65
2022/05/28 04:39:12;;;;;;;8.35;2.75;;;;;;;14.93;49.61;102100.16;5004007;28;20046;-65
2022/05/28 04:41:39;;;;;;;9.93;2.90;;;;;;;14.93;49.68;102105.56;4992412;28;20054;-65
2022/05/28 04:44:07;;;;;;;9.65;3.40;;;;;;;14.93;50.13;102105.56;5003369;28;20077;-65
2022/05/28 04:46:36;;;;;;;7.28;3.13;;;;;;;14.91;49.99;102101.41;5001597;28;20085;-65
2022/05/28 04:49:05;;;;;;;8.88;2.97;;;;;;;14.89;50.17;102096.22;4999077;28;20082;-65
2022/05/28 04:51:33;;;;;;;8.93;2.70;;;;;;;14.90;50.19;102102.47;5002627;28;20078;-65
2022/05/28 04:54:00;;;;;;;7.43;2.50;;;;;;;14.86;50.53;102093.94;5003160;28;20082;-65
2022/05/28 04:56:28;;;;;;;7.53;2.65;;;;;;;14.90;50.63;102106.00;5003571;28;20078;-65
2022/05/28 04:58:56;;;;;;;6.95;2.85;;;;;;;14.88;50.25;102112.69;5003391;28;20057;-65
2022/05/28 05:01:25;;;;;;;8.65;3.03;;;;;;;14.84;50.74;102106.06;5002622;28;20077;-65
2022/05/28 05:03:54;;;;;;;9.75;2.63;;;;;;;14.83;51.54;102116.03;5002683;28;20054;-65
2022/05/28 05:06:22;;;;;;;8.02;2.03;;;;;;;14.82;50.93;102122.50;5002241;28;20400;-65
2022/05/28 05:08:50;;;;;;;8.68;2.40;;;;;;;14.81;50.93;102117.31;5002397;28;20042;-65
2022/05/28 05:11:17;;;;;;;7.97;2.60;;;;;;;14.81;51.53;102109.19;5002635;28;20077;-65
2022/05/28 05:13:45;;;;;;;7.57;3.20;;;;;;;14.84;51.83;102122.28;5003592;28;20047;-65
2022/05/28 05:16:15;;;;;;;10.98;2.50;;;;;;;14.86;51.28;102117.50;5008258;28;20085;-65
2022/05/28 05:18:44;;;;;;;8.15;2.17;;;;;;;14.87;51.85;102119.97;4646934;28;10000709;-65
2022/05/28 05:21:13;;;;;;;9.95;2.25;;;;;;;14.88;51.61;102129.75;4996593;28;20081;-66
2022/05/28 05:23:41;;;;;;;12.27;2.88;;;;;;;14.89;52.09;102126.00;4999446;28;20049;-65
2022/05/28 05:26:10;;;;;;;12.15;2.70;;;;;;;14.91;52.32;102126.59;4998946;28;20042;-64
2022/05/28 05:28:38;;;;;;;7.88;2.40;;;;;;;14.92;52.22;102120.16;4998017;28;20077;-65
2022/05/28 05:31:11;;;;;;;9.75;2.65;;;;;;;14.93;52.34;102129.91;4998056;28;20345;-65
2022/05/28 05:33:39;;;;;;;16.42;3.17;;;;;;;14.95;52.62;102129.72;4997989;28;20088;-65
2022/05/28 05:36:08;;;;;;;13.55;3.22;;;;;;;14.96;52.67;102132.19;4999544;28;20046;-65
2022/05/28 05:38:38;;;;;;;12.80;3.92;;;;;;;14.96;53.14;102132.19;4998505;28;20046;-64
2022/05/28 05:41:06;;;;;;;9.80;2.35;;;;;;;14.98;52.94;102132.81;4997036;28;20070;-64
2022/05/28 05:43:34;;;;;;;12.73;2.58;;;;;;;14.98;53.00;102138.22;4997638;28;20057;-64
2022/05/28 05:46:02;;;;;;;11.60;3.03;;;;;;;15.00;53.22;102129.88;5001051;28;20386;-65
2022/05/28 05:48:31;;;;;;;13.55;2.00;;;;;;;15.04;53.13;102132.97;4995136;28;20038;-65
2022/05/28 05:51:06;;;;;;;8.63;2.63;;;;;;;15.04;53.22;102141.09;5000861;28;20077;-64
2022/05/28 05:53:33;;;;;;;12.93;3.85;;;;;;;15.05;53.29;102132.75;4651078;28;9999864;-64
2022/05/28 05:56:03;;;;;;;7.10;2.15;;;;;;;15.08;52.98;102142.31;4998153;28;20046;-64
2022/05/28 05:58:33;;;;;;;10.48;2.30;;;;;;;15.07;53.38;102138.78;5000363;28;20383;-64
2022/05/28 06:01:02;;;;;;;6.57;1.80;;;;;;;15.08;53.44;102135.03;5003429;28;20069;-65
2022/05/28 06:03:30;;;;;;;8.05;1.80;;;;;;;15.09;53.48;102133.97;5001343;28;20081;-63
2022/05/28 06:05:59;;;;;;;8.82;1.80;;;;;;;15.10;53.41;102126.69;5003400;28;20615;-63
2022/05/28 06:08:27;;;;;;;9.00;1.77;;;;;;;15.16;53.21;102139.34;5002874;28;20349;-65
2022/05/28 06:10:55;;;;;;;7.60;2.13;;;;;;;15.16;53.13;102137.44;5002816;28;20093;-65
2022/05/28 06:13:24;;;;;;;10.70;1.85;;;;;;;15.19;53.05;102138.91;5002682;28;20074;-64
2022/05/28 06:15:52;;;;;;;11.00;2.55;;;;;;;15.20;52.67;102140.56;5002054;28;20089;-65
2022/05/28 06:18:20;;;;;;;7.50;2.08;;;;;;;15.20;52.40;102152.22;4999861;28;20085;-64
2022/05/28 06:20:49;;;;;;;7.82;1.95;;;;;;;15.21;52.23;102144.91;5001017;28;20050;-65
2022/05/28 06:23:17;;;;;;;8.48;2.03;;;;;;;15.21;52.42;102147.63;5006397;28;20081;-66
2022/05/28 06:25:45;;;;;;;7.72;2.00;;;;;;;15.22;52.06;102146.56;5003430;28;20046;-66
2022/05/28 06:28:13;;;;;;;11.68;2.10;;;;;;;15.21;52.04;102145.75;4996805;28;20113;-64
2022/05/28 06:30:44;;;;;;;5.80;2.15;;;;;;;15.22;51.83;102155.53;5004531;28;20070;-65
2022/05/28 06:33:12;;;;;;;7.88;1.48;;;;;;;15.18;51.94;102145.34;5003806;28;20054;-64
2022/05/28 06:35:40;;;;;;;6.53;1.83;;;;;;;15.21;51.44;102156.56;5006366;28;20070;-67
2022/05/28 06:38:08;;;;;;;8.13;1.77;;;;;;;15.20;51.42;102148.69;5003066;28;20114;-66
2022/05/28 06:40:37;;;;;;;10.95;1.77;;;;;;;15.19;51.13;102157.84;5005655;28;20076;-64
2022/05/28 06:43:05;;;;;;;4.93;1.30;;;;;;;15.17;50.83;102155.38;5006199;28;20078;-67
2022/05/28 06:45:33;;;;;;;7.35;1.40;;;;;;;15.14;50.76;102157.69;4655478;28;9999970;-67
2022/05/28 06:48:02;;;;;;;5.43;1.52;;;;;;;15.17;50.70;102160.78;5002187;28;20137;-68
2022/05/28 06:53:15;;;;;;;6.32;2.33;;;;;;;15.15;50.56;102160.16;5007163;28;20081;-69
2022/05/28 06:55:43;;;;;;;10.20;1.92;;;;;;;15.16;50.29;102164.53;5007794;28;20054;-69
2022/05/28 06:58:11;;;;;;;8.38;1.75;;;;;;;15.18;50.46;102158.91;5005998;28;20061;-69
2022/05/28 07:00:39;;;;;;;5.88;1.75;;;;;;;15.21;49.74;102164.72;5004816;28;20661;-69
2022/05/28 07:03:13;;;;;;;8.38;1.85;;;;;;;15.22;49.66;102166.38;5006761;28;20050;-68
2022/05/28 07:05:41;;;;;;;5.40;1.77;;;;;;;15.24;49.33;102175.09;5006845;28;20081;-69
2022/05/28 07:08:09;;;;;;;5.93;1.20;;;;;;;15.23;48.87;102172.59;5006950;28;20054;-69
2022/05/28 07:10:38;;;;;;;5.85;1.58;;;;;;;15.22;48.72;102171.78;5006884;28;20085;-69
2022/05/28 07:13:06;;;;;;;9.55;2.15;;;;;;;15.22;48.69;102173.66;5006768;28;20058;-69
2022/05/28 07:15:34;;;;;;;7.70;1.55;;;;;;;15.21;48.61;102182.84;5007124;28;20050;-69
2022/05/28 07:18:02;;;;;;;7.25;1.55;;;;;;;15.17;48.21;102168.06;5006265;28;20077;-69
2022/05/28 07:20:31;;;;;;;6.28;1.88;;;;;;;15.19;48.12;102176.81;5006959;28;20089;-69
2022/05/28 07:22:59;;;;;;;11.38;1.67;;;;;;;15.17;47.93;102177.03;5006379;28;20057;-69
2022/05/28 07:25:26;;;;;;;11.35;1.77;;;;;;;15.16;48.09;102175.38;5006488;28;20105;-70
2022/05/28 07:27:54;;;;;;;9.98;1.60;;;;;;;15.15;48.29;102164.75;5006656;28;20050;-68
2022/05/28 07:30:22;;;;;;;10.57;1.77;;;;;;;15.15;47.88;102175.59;5006531;28;20092;-69
2022/05/28 07:32:50;;;;;;;5.28;1.60;;;;;;;15.16;47.96;102164.53;5005129;28;20077;-68
2022/05/28 07:35:18;;;;;;;3.75;1.20;;;;;;;15.17;48.38;102166.19;5005682;28;20191;-68
2022/05/28 07:37:51;;;;;;;5.05;1.30;;;;;;;15.19;48.05;102169.50;5006259;28;20109;-69
2022/05/28 07:40:19;;;;;;;5.25;1.40;;;;;;;15.21;48.28;102174.72;5006030;28;20166;-69
2022/05/28 07:42:46;;;;;;;3.35;1.20;;;;;;;15.23;48.40;102181.56;5005803;28;20076;-69
2022/05/28 07:45:20;;;;;;;9.45;2.30;;;;;;;15.23;47.76;102184.28;5006109;28;20104;-69
2022/05/28 07:47:48;;;;;;;7.95;1.80;;;;;;;15.24;47.51;102176.97;5005648;28;20074;-69
2022/05/28 07:50:15;;;;;;;6.85;1.65;;;;;;;15.22;47.38;102177.19;5005816;28;20069;-69
2022/05/28 07:52:44;;;;;;;9.43;1.60;;;;;;;15.23;47.12;102178.03;5005960;28;20046;-69
2022/05/28 07:55:13;;;;;;;9.63;2.00;;;;;;;15.23;47.05;102169.91;5005621;28;20070;-69
2022/05/28 07:57:41;;;;;;;7.60;1.30;;;;;;;15.23;47.27;102178.03;5005889;28;20085;-69
2022/05/28 08:00:10;;;;;;;7.28;1.80;;;;;;;15.24;47.29;102185.09;5006461;28;20104;-69
2022/05/28 08:02:38;;;;;;;5.93;1.95;;;;;;;15.24;47.20;102183.22;5005078;28;20086;-69
2022/05/28 08:05:06;;;;;;;8.32;1.35;;;;;;;15.24;46.97;102169.69;5005204;28;20142;-69
2022/05/28 08:07:34;;;;;;;5.95;1.45;;;;;;;15.25;47.01;102174.03;5005353;28;20096;-69
2022/05/28 08:10:01;;;;;;;7.88;2.03;;;;;;;15.25;47.12;102176.75;5006481;28;20046;-69
2022/05/28 08:12:31;;;;;;;10.90;2.10;;;;;;;15.27;46.95;102169.25;5005860;28;20531;-69
2022/05/28 08:14:59;;;;;;;5.97;1.92;;;;;;;15.24;47.29;102161.56;5004539;28;20082;-69
2022/05/28 08:17:26;;;;;;;5.15;1.00;;;;;;;15.29;47.19;102171.72;5004938;28;20085;-69
2022/05/28 08:19:54;;;;;;;6.63;1.60;;;;;;;15.28;46.62;102167.34;5005148;28;20050;-69
2022/05/28 08:25:08;;;;;;;6.93;1.75;;;;;;;15.25;46.09;102162.38;5005347;28;20085;-68
2022/05/28 08:27:37;;;;;;;4.40;1.08;;;;;;;15.24;46.69;102164.25;5003493;28;20129;-69
2022/05/28 08:30:06;;;;;;;12.65;3.53;;;;;;;15.24;46.52;102168.84;5005871;28;20046;-69
2022/05/28 08:32:34;;;;;;;6.03;1.13;;;;;;;15.23;46.07;102164.47;5004710;28;20061;-69
2022/05/28 08:35:02;;;;;;;10.77;1.80;;;;;;;15.23;46.40;102164.47;5004856;28;20050;-69
2022/05/28 08:37:30;;;;;;;4.22;1.17;;;;;;;15.24;46.35;102166.13;5004582;28;20078;-69
2022/05/28 08:39:58;;;;;;;3.92;1.13;;;;;;;15.25;46.44;102167.81;5005422;28;20065;-69
2022/05/28 08:42:28;;;;;;;4.93;1.23;;;;;;;15.28;46.25;102164.66;5004806;28;20054;-69
2022/05/28 08:45:02;;;;;;;5.75;1.55;;;;;;;15.29;46.61;102159.00;5005956;28;20046;-68
2022/05/28 08:47:34;;;;;;;3.88;1.58;;;;;;;15.33;46.59;102159.41;5003645;28;20058;-68
2022/05/28 08:50:02;;;;;;;6.68;1.60;;;;;;;15.36;46.72;102158.97;5005343;28;20082;-68
2022/05/28 08:52:34;;;;;;;5.97;1.48;;;;;;;15.38;46.37;102154.16;5003679;28;20558;-68
2022/05/28 08:55:07;;;;;;;10.23;1.90;;;;;;;15.39;46.09;102166.63;5005460;28;20047;-68
2022/05/28 08:57:46;;;;;;;6.75;1.75;;;;;;;15.40;45.67;102159.34;5004831;28;20066;-68
2022/05/28 09:00:18;;;;;;;9.57;1.60;;;;;;;15.40;45.43;102153.94;5005222;28;20076;-69
2022/05/28 09:02:50;;;;;;;6.28;1.50;;;;;;;15.41;45.46;102163.72;5001639;28;20089;-69
2022/05/28 09:05:25;;;;;;;7.90;1.45;;;;;;;15.40;45.32;102160.19;5004935;28;20046;-69
2022/05/28 09:07:57;;;;;;;7.15;1.80;;;;;;;15.42;45.34;102158.06;5005000;28;20074;-69
2022/05/28 09:10:26;;;;;;;5.70;1.30;;;;;;;15.43;45.23;102145.34;5004773;28;20046;-69
2022/05/28 09:12:59;;;;;;;5.85;1.50;;;;;;;15.43;45.49;102159.72;5004261;28;20100;-69
2022/05/28 09:15:29;;;;;;;6.45;1.40;;;;;;;15.46;45.05;102156.56;5005289;28;20050;-69
2022/05/28 09:17:58;;;;;;;6.95;1.52;;;;;;;15.48;45.23;102164.47;5003484;28;20057;-69
2022/05/28 09:20:38;;;;;;;8.20;2.13;;;;;;;15.47;45.27;102150.09;5004711;28;20046;-69
2022/05/28 09:23:06;;;;;;;6.63;1.60;;;;;;;15.47;45.19;102152.81;4995817;28;20081;-69
2022/05/28 09:25:40;;;;;;;6.28;1.65;;;;;;;15.48;45.16;102159.06;5004751;28;20562;-69
2022/05/28 09:28:29;;;;;;;7.10;1.38;;;;;;;15.48;44.95;102149.06;5004132;28;20074;-69
2022/05/28 09:31:08;;;;;;;7.72;1.42;;;;;;;15.48;45.40;102153.66;5004379;28;20089;-69
2022/05/28 09:33:55;;;;;;;6.07;1.20;;;;;;;15.48;45.81;102149.06;5002223;28;20057;-69
2022/05/28 09:36:32;;;;;;;5.30;1.65;;;;;;;15.50;45.74;102156.97;5003819;28;20061;-69
2022/05/28 09:39:05;;;;;;;;;;;;;;;15.51;46.08;102159.44;5004149;28;20094;-69
2022/05/28 09:41:50;;;;;;;6.25;1.33;;;;;;;15.51;46.12;102151.31;5004592;28;19922;-69
2022/05/28 09:44:31;;;;;;;6.57;1.10;;;;;;;15.52;46.50;102144.84;5004006;28;20061;-69
2022/05/28 09:47:09;;;;;;;8.43;1.55;;;;;;;15.55;46.60;102157.94;5003267;28;20084;-69
2022/05/28 09:49:48;;;;;;;7.65;1.52;;;;;;;15.57;46.35;102158.59;5002622;28;20057;-69
2022/05/28 09:52:23;;;;;;;6.30;1.60;;;;;;;15.58;46.40;102146.69;5003723;28;20085;-69
2022/05/28 09:54:50;;;;;;;3.78;1.27;;;;;;;15.60;45.93;102141.84;5004602;28;20119;-69
2022/05/28 09:57:23;;;;;;;7.85;1.65;;;;;;;15.61;46.08;102143.50;5004238;28;20058;-69
2022/05/28 09:59:55;;;;;;;5.97;1.95;;;;;;;15.63;45.82;102135.16;5003075;28;20058;-69
2022/05/28 10:02:28;;;;;;;7.93;1.50;;;;;;;15.63;45.89;102119.72;5002339;28;20058;-69
2022/05/28 10:04:58;;;;;;;5.97;1.17;;;;;;;15.68;45.68;102142.63;5004103;28;20073;-69
2022/05/28 10:07:32;;;;;;;6.55;1.38;;;;;;;15.68;45.03;102137.19;5003730;28;20503;-70
2022/05/28 10:10:01;;;;;;;7.20;1.13;;;;;;;15.66;44.39;102128.47;5004050;28;20065;-69
2022/05/28 10:12:31;;;;;;;4.57;1.38;;;;;;;15.66;44.30;102140.13;5003495;28;20047;-69
2022/05/28 10:15:01;;;;;;;5.45;1.52;;;;;;;15.66;44.16;102139.31;5003916;28;20058;-69
2022/05/28 10:17:32;;;;;;;4.70;1.92;;;;;;;15.63;44.18;102124.31;5003538;28;20050;-70
2022/05/28 10:20:02;;;;;;;5.22;1.80;;;;;;;15.60;44.30;102120.19;5003986;28;20058;-69
2022/05/28 10:22:30;;;;;;;7.30;1.80;;;;;;;15.64;44.01;102117.84;5003404;28;20108;-70
2022/05/28 10:25:01;;;;;;;4.63;1.17;;;;;;;15.66;44.49;102121.16;5003689;28;20441;-69
2022/05/28 10:27:34;;;;;;;5.43;1.50;;;;;;;15.70;44.48;102129.66;5004154;28;20061;-69
2022/05/28 10:30:07;;;;;;;5.40;1.35;;;;;;;15.72;44.07;102124.84;5004319;28;20061;-69
2022/05/28 10:32:42;;;;;;;5.63;1.65;;;;;;;15.74;43.88;102126.28;5002243;28;20042;-69
2022/05/28 10:35:16;;;;;;;7.18;1.90;;;;;;;15.76;43.56;102128.78;5003197;28;20054;-69
2022/05/28 10:37:44;;;;;;;8.90;1.83;;;;;;;15.77;43.79;102117.69;5004109;28;20384;-69
2022/05/28 10:40:19;;;;;;;6.57;1.15;;;;;;;15.77;43.99;102128.53;5003479;28;20082;-69
2022/05/28 10:42:47;;;;;;;7.28;2.50;;;;;;;15.78;44.07;102124.78;5003353;28;20427;-69
2022/05/28 10:45:18;;;;;;;11.57;2.30;;;;;;;15.79;43.21;102126.44;5006779;28;20038;-69
2022/05/28 10:48:10;;;;;;;8.05;1.45;;;;;;;15.76;43.46;102118.75;5007126;28;20053;-69
2022/05/28 10:50:47;;;;;;;5.63;2.03;;;;;;;15.82;43.16;102117.84;5006974;28;20050;-69
2022/05/28 10:53:22;;;;;;;12.18;2.78;;;;;;;15.82;43.15;102120.56;5007202;28;20057;-69
2022/05/28 10:56:05;;;;;;;6.78;1.70;;;;;;;15.78;43.36;102103.09;4988203;28;20078;-69
2022/05/28 10:58:47;;;;;;;6.90;1.75;;;;;;;15.89;43.15;102118.59;4991522;28;20062;-69
2022/05/28 11:01:30;;;;;;;4.88;1.45;;;;;;;15.94;43.60;102118.75;5007775;28;20046;-69
2022/05/28 11:04:38;;;;;;;8.38;1.52;;;;;;;15.98;43.33;102119.13;5003251;28;20050;-69
2022/05/28 11:07:34;;;;;;;6.13;1.67;;;;;;;16.02;43.06;102133.91;4909278;29;20062;-68
2022/05/28 11:10:15;;;;;;;5.82;2.00;;;;;;;16.02;42.24;102114.91;4890384;29;20057;-69
2022/05/28 11:13:00;;;;;;;7.55;1.42;;;;;;;16.05;42.50;102110.91;4890152;29;20077;-69
2022/05/28 11:15:38;;;;;;;6.15;1.90;;;;;;;16.07;41.19;102114.25;4916623;29;20065;-69
2022/05/28 11:18:31;;;;;;;4.53;1.02;;;;;;;16.07;40.85;102106.09;4908107;29;20090;-69
2022/05/28 11:21:14;;;;;;;6.07;1.88;;;;;;;16.09;41.47;102117.56;4908519;29;20136;-69
2022/05/28 11:24:02;;;;;;;9.95;1.65;;;;;;;16.11;40.55;102116.25;4913905;29;20060;-69
2022/05/28 11:26:37;;;;;;;6.60;1.60;;;;;;;16.13;40.88;102106.00;4913694;29;20052;-68
2022/05/28 11:29:36;;;;;;;8.48;1.52;;;;;;;16.15;41.01;102106.63;4920960;29;20080;-69
2022/05/28 11:32:12;;;;;;;3.95;1.35;;;;;;;16.18;41.21;102092.59;4923624;29;20071;-69
2022/05/28 11:34:52;;;;;;;6.13;1.65;;;;;;;16.18;41.26;102106.16;4927587;29;20052;-68
2022/05/28 11:37:26;;;;;;;8.65;1.40;;;;;;;16.24;39.96;102105.25;4920340;29;20116;-68
2022/05/28 11:40:00;;;;;;;5.03;1.58;;;;;;;16.25;40.11;102098.78;4906581;29;20056;-68
2022/05/28 11:42:36;;;;;;;7.68;1.17;;;;;;;16.27;39.56;102093.94;4951886;28;20069;-69
2022/05/28 11:45:09;;;;;;;6.82;1.73;;;;;;;16.28;39.49;102094.78;5007140;28;20050;-68
2022/05/28 11:47:45;;;;;;;6.25;1.67;;;;;;;16.28;38.54;102087.47;5005077;28;20054;-69